createdAt,value
2019-02-15T00:01:20.966Z,15.30
2019-02-15T00:03:47.500Z,17.67
2019-02-15T00:06:14.343Z,15.17
2019-02-15T00:08:41.268Z,16.67
2019-02-15T00:11:08.028Z,17.60
2019-02-15T00:13:34.562Z,17.13
2019-02-15T00:16:01.400Z,19.43
2019-02-15T00:18:29.693Z,16.80
2019-02-15T00:20:56.311Z,18.30
2019-02-15T00:23:23.157Z,15.67
2019-02-15T00:25:49.692Z,18.47
2019-02-15T00:28:16.222Z,15.17
2019-02-15T00:30:43.067Z,16.47
2019-02-15T00:33:09.606Z,21.93
2019-02-15T00:35:36.134Z,18.07
2019-02-15T00:38:02.979Z,15.57
2019-02-15T00:40:29.820Z,15.03
2019-02-15T00:42:56.660Z,16.57
2019-02-15T00:45:23.504Z,15.93
2019-02-15T00:47:50.119Z,18.40
2019-02-15T00:50:16.654Z,17.53
2019-02-15T00:52:43.424Z,17.97
2019-02-15T00:55:09.948Z,18.23
2019-02-15T00:57:36.483Z,15.23
2019-02-15T01:00:03.321Z,16.37
2019-02-15T01:02:29.859Z,17.70
2019-02-15T01:04:56.390Z,15.50
2019-02-15T01:07:23.270Z,15.57
2019-02-15T01:09:49.963Z,19.73
2019-02-15T01:12:16.694Z,17.47
2019-02-15T01:14:43.450Z,17.43
2019-02-15T01:17:09.989Z,17.93
2019-02-15T01:19:36.520Z,15.97
2019-02-15T01:22:03.364Z,15.00
2019-02-15T01:24:29.895Z,15.80
2019-02-15T01:26:56.439Z,18.60
2019-02-15T01:29:22.964Z,18.70
2019-02-15T01:31:49.810Z,15.40
2019-02-15T01:34:16.347Z,15.20
2019-02-15T01:36:42.876Z,14.73
2019-02-15T01:39:09.409Z,16.20
2019-02-15T01:41:35.946Z,18.03
2019-02-15T01:44:02.486Z,12.80
2019-02-15T01:46:29.013Z,15.23
2019-02-15T01:48:55.855Z,15.67
2019-02-15T01:51:22.706Z,13.83
2019-02-15T01:53:49.236Z,14.67
2019-02-15T01:56:15.706Z,15.53
2019-02-15T01:58:42.608Z,14.07
2019-02-15T02:01:09.453Z,20.10
2019-02-15T02:03:35.982Z,14.80
2019-02-15T02:06:02.825Z,14.20
2019-02-15T02:08:29.363Z,15.50
2019-02-15T02:10:55.894Z,13.33
2019-02-15T02:13:22.535Z,13.87
2019-02-15T02:15:49.270Z,12.83
2019-02-15T02:18:15.808Z,13.20
2019-02-15T02:20:42.350Z,12.33
2019-02-15T02:23:09.181Z,14.10
2019-02-15T02:25:36.027Z,12.77
2019-02-15T02:28:02.564Z,14.57
2019-02-15T02:30:29.095Z,13.83
2019-02-15T02:32:55.627Z,13.70
2019-02-15T02:35:22.472Z,12.77
2019-02-15T02:37:49.311Z,14.50
2019-02-15T02:40:15.863Z,13.83
2019-02-15T02:42:42.381Z,14.43
2019-02-15T02:45:09.234Z,13.33
2019-02-15T02:47:35.757Z,12.03
2019-02-15T02:50:02.391Z,13.20
2019-02-15T02:52:29.146Z,14.37
2019-02-15T02:54:55.974Z,13.27
2019-02-15T02:57:22.506Z,13.40
2019-02-15T02:59:49.045Z,14.20
2019-02-15T03:02:15.885Z,14.63
2019-02-15T03:04:42.422Z,24.50
2019-02-15T03:07:08.955Z,13.40
2019-02-15T03:09:35.801Z,13.07
2019-02-15T03:12:02.329Z,13.53
2019-02-15T03:14:28.863Z,13.70
2019-02-15T03:16:55.705Z,13.53
2019-02-15T03:19:22.241Z,11.50
2019-02-15T03:21:48.782Z,11.60
2019-02-15T03:24:15.312Z,12.10
2019-02-15T03:26:42.150Z,11.67
2019-02-15T03:29:08.734Z,12.60
2019-02-15T03:31:35.532Z,16.60
2019-02-15T03:34:02.062Z,13.60
2019-02-15T03:36:28.604Z,13.23
2019-02-15T03:38:55.173Z,14.77
2019-02-15T03:41:21.972Z,11.60
2019-02-15T03:43:48.507Z,10.60
2019-02-15T03:46:15.043Z,12.97
2019-02-15T03:48:41.578Z,10.20
2019-02-15T03:51:08.416Z,15.87
2019-02-15T03:53:34.951Z,12.00
2019-02-15T03:56:01.492Z,12.30
2019-02-15T03:58:28.037Z,11.77
2019-02-15T04:00:54.560Z,12.47
2019-02-15T04:03:21.398Z,12.57
2019-02-15T04:05:48.241Z,13.40
2019-02-15T04:08:14.772Z,15.73
2019-02-15T04:10:41.617Z,14.53
2019-02-15T04:13:08.151Z,17.63
2019-02-15T04:15:35.263Z,12.97
2019-02-15T04:18:02.342Z,12.87
2019-02-15T04:20:28.984Z,17.73
2019-02-15T04:22:55.522Z,14.93
2019-02-15T04:25:22.356Z,13.87
2019-02-15T04:27:48.976Z,12.93
2019-02-15T04:30:15.745Z,12.30
2019-02-15T04:32:42.268Z,10.17
2019-02-15T04:35:09.108Z,11.90
2019-02-15T04:37:35.645Z,13.27
2019-02-15T04:40:02.484Z,12.73
2019-02-15T04:42:29.021Z,12.03
2019-02-15T04:44:55.557Z,11.23
2019-02-15T04:47:22.115Z,10.47
2019-02-15T04:49:48.623Z,11.50
2019-02-15T04:52:15.264Z,12.30
2019-02-15T04:54:42.004Z,12.93
2019-02-15T04:57:08.537Z,12.57
2019-02-15T04:59:35.067Z,12.30
2019-02-15T05:02:01.602Z,12.37
2019-02-15T05:04:28.453Z,12.50
2019-02-15T05:06:54.986Z,11.37
2019-02-15T05:09:23.814Z,11.17
2019-02-15T05:11:50.199Z,10.17
2019-02-15T05:14:17.044Z,11.80
2019-02-15T05:16:43.882Z,11.30
2019-02-15T05:19:10.421Z,9.53
2019-02-15T05:21:36.951Z,11.50
2019-02-15T05:24:03.798Z,9.50
2019-02-15T05:26:30.326Z,10.93
2019-02-15T05:28:57.168Z,10.93
2019-02-15T05:31:23.711Z,11.57
2019-02-15T05:33:50.239Z,13.13
2019-02-15T05:36:17.078Z,12.27
2019-02-15T05:38:43.614Z,15.27
2019-02-15T05:41:10.455Z,10.63
2019-02-15T05:43:36.993Z,14.07
2019-02-15T05:46:03.832Z,12.33
2019-02-15T05:48:30.369Z,10.70
2019-02-15T05:50:57.207Z,10.13
2019-02-15T05:53:24.061Z,9.20
2019-02-15T05:55:50.590Z,10.10
2019-02-15T05:58:17.424Z,9.97
2019-02-15T06:00:44.266Z,11.17
2019-02-15T06:03:10.802Z,15.90
2019-02-15T06:05:37.949Z,11.47
2019-02-15T06:08:04.815Z,10.67
2019-02-15T06:10:31.330Z,12.93
2019-02-15T06:12:57.860Z,10.67
2019-02-15T06:15:24.704Z,17.33
2019-02-15T06:17:51.236Z,11.70
2019-02-15T06:20:17.792Z,11.37
2019-02-15T06:22:44.306Z,11.33
2019-02-15T06:25:11.148Z,10.90
2019-02-15T06:27:37.683Z,11.97
2019-02-15T06:30:04.527Z,13.77
2019-02-15T06:32:31.057Z,11.90
2019-02-15T06:34:57.700Z,11.30
2019-02-15T06:37:24.257Z,11.57
2019-02-15T06:39:50.979Z,11.13
2019-02-15T06:42:17.815Z,13.07
2019-02-15T06:44:44.344Z,10.27
2019-02-15T06:47:11.188Z,9.90
2019-02-15T06:49:38.032Z,12.10
2019-02-15T06:52:04.563Z,11.53
2019-02-15T06:54:31.403Z,10.43
2019-02-15T06:56:57.964Z,11.77
2019-02-15T06:59:24.477Z,15.73
2019-02-15T07:01:51.010Z,11.87
2019-02-15T07:04:17.545Z,9.57
2019-02-15T07:06:44.383Z,10.97
2019-02-15T07:09:10.923Z,15.47
2019-02-15T07:11:37.455Z,10.60
2019-02-15T07:14:04.296Z,11.83
2019-02-15T07:16:30.832Z,12.50
2019-02-15T07:18:57.671Z,10.57
2019-02-15T07:21:24.182Z,9.90
2019-02-15T07:23:50.740Z,9.23
2019-02-15T07:26:17.581Z,9.23
2019-02-15T07:28:44.302Z,8.63
2019-02-15T07:31:10.957Z,12.03
2019-02-15T07:33:37.494Z,6.20
2019-02-15T07:36:04.030Z,8.37
2019-02-15T07:38:30.875Z,7.07
2019-02-15T07:40:57.405Z,8.10
2019-02-15T07:43:24.244Z,7.67
2019-02-15T07:45:50.786Z,6.37
2019-02-15T07:48:17.315Z,7.10
2019-02-15T07:50:44.155Z,6.83
2019-02-15T07:53:10.718Z,6.83
2019-02-15T07:55:37.533Z,6.43
2019-02-15T07:58:04.068Z,5.90
2019-02-15T08:00:30.602Z,8.03
2019-02-15T08:02:57.135Z,8.53
2019-02-15T08:05:23.764Z,4.97
2019-02-15T08:07:50.513Z,6.47
2019-02-15T08:10:17.355Z,4.97
2019-02-15T08:12:43.892Z,6.47
2019-02-15T08:15:10.425Z,5.87
2019-02-15T08:17:37.263Z,6.97
2019-02-15T08:20:03.807Z,4.57
2019-02-15T08:22:30.333Z,7.97
2019-02-15T08:24:56.870Z,5.23
2019-02-15T08:27:23.400Z,4.67
2019-02-15T08:29:49.939Z,6.23
2019-02-15T08:32:16.785Z,5.40
2019-02-15T08:34:43.313Z,4.53
2019-02-15T08:37:10.154Z,4.83
2019-02-15T08:39:36.690Z,4.50
2019-02-15T08:42:04.620Z,5.47
2019-02-15T08:44:31.303Z,4.83
2019-02-15T08:46:57.850Z,5.13
2019-02-15T08:49:24.362Z,3.70
2019-02-15T08:51:50.899Z,4.43
2019-02-15T08:54:17.434Z,4.00
2019-02-15T08:56:43.971Z,3.77
2019-02-15T08:59:10.807Z,5.30
2019-02-15T09:01:37.434Z,5.93
2019-02-15T09:04:04.187Z,4.53
2019-02-15T09:06:30.721Z,4.73
2019-02-15T09:08:57.561Z,4.27
2019-02-15T09:11:24.096Z,4.30
2019-02-15T09:13:50.630Z,5.33
2019-02-15T09:16:17.470Z,4.97
2019-02-15T09:18:44.004Z,5.10
2019-02-15T09:21:10.847Z,4.93
2019-02-15T09:23:37.384Z,4.60
2019-02-15T09:26:03.866Z,4.23
2019-02-15T09:28:30.426Z,5.07
2019-02-15T09:30:56.985Z,4.63
2019-02-15T09:33:23.827Z,4.63
2019-02-15T09:35:50.364Z,4.80
2019-02-15T09:38:16.896Z,4.47
2019-02-15T09:40:43.433Z,5.10
2019-02-15T09:43:09.966Z,3.70
2019-02-15T09:45:36.806Z,4.17
2019-02-15T09:48:03.348Z,4.60
2019-02-15T09:50:30.185Z,4.53
2019-02-15T09:52:56.723Z,4.17
2019-02-15T09:55:23.252Z,5.70
2019-02-15T09:57:50.095Z,5.30
2019-02-15T10:00:16.629Z,4.43
2019-02-15T10:02:43.469Z,5.23
2019-02-15T10:05:10.006Z,4.87
2019-02-15T10:07:36.858Z,5.33
2019-02-15T10:10:03.379Z,5.63
2019-02-15T10:12:29.914Z,6.90
2019-02-15T10:14:56.759Z,5.63
2019-02-15T10:17:23.300Z,5.20
2019-02-15T10:19:49.828Z,4.30
2019-02-15T10:22:16.666Z,6.63
2019-02-15T10:24:43.204Z,5.30
2019-02-15T10:27:09.739Z,7.50
2019-02-15T10:29:36.270Z,6.07
2019-02-15T10:32:03.113Z,5.67
2019-02-15T10:34:29.955Z,6.67
2019-02-15T10:36:56.487Z,6.33
2019-02-15T10:39:23.022Z,5.97
2019-02-15T10:41:49.557Z,6.67
2019-02-15T10:44:16.401Z,5.20
2019-02-15T10:46:43.241Z,5.30
2019-02-15T10:49:09.776Z,5.73
2019-02-15T10:51:36.620Z,6.00
2019-02-15T10:54:03.150Z,7.30
2019-02-15T10:56:29.690Z,6.03
2019-02-15T10:58:56.527Z,6.00
2019-02-15T11:01:23.065Z,7.07
2019-02-15T11:03:49.912Z,7.03
2019-02-15T11:06:16.462Z,4.90
2019-02-15T11:08:42.972Z,6.37
2019-02-15T11:11:09.816Z,6.23
2019-02-15T11:13:36.349Z,7.33
2019-02-15T11:16:02.882Z,10.00
2019-02-15T11:18:29.420Z,7.47
2019-02-15T11:20:55.957Z,5.97
2019-02-15T11:23:22.796Z,8.43
2019-02-15T11:25:49.328Z,7.33
2019-02-15T11:28:15.875Z,5.03
2019-02-15T11:30:43.019Z,5.23
2019-02-15T11:33:09.853Z,6.37
2019-02-15T11:35:36.390Z,4.40
2019-02-15T11:38:02.922Z,5.30
2019-02-15T11:40:29.455Z,4.93
2019-02-15T11:42:55.992Z,4.23
2019-02-15T11:45:22.516Z,5.50
2019-02-15T11:47:49.103Z,3.87
2019-02-15T11:50:15.884Z,6.73
2019-02-15T11:52:42.435Z,5.57
2019-02-15T11:55:09.280Z,9.30
2019-02-15T11:57:35.812Z,6.63
2019-02-15T12:00:02.654Z,8.90
2019-02-15T12:02:29.188Z,9.00
2019-02-15T12:04:55.729Z,9.45
2019-02-15T12:07:22.256Z,9.28
2019-02-15T12:09:48.966Z,10.78
2019-02-15T12:12:15.724Z,10.73
2019-02-15T12:14:42.483Z,10.23
2019-02-15T12:17:09.013Z,9.87
2019-02-15T12:19:35.543Z,9.27
2019-02-15T12:22:02.085Z,10.47
2019-02-15T12:24:29.229Z,10.33
2019-02-15T12:26:56.069Z,10.73
2019-02-15T12:29:22.607Z,11.63
2019-02-15T12:31:49.444Z,10.13
2019-02-15T12:34:16.012Z,9.23
2019-02-15T12:36:42.821Z,10.23
2019-02-15T12:39:09.330Z,9.03
2019-02-15T12:41:35.889Z,10.43
2019-02-15T12:44:02.738Z,11.30
2019-02-15T12:46:29.577Z,10.47
2019-02-15T12:48:56.414Z,10.83
2019-02-15T12:51:22.958Z,10.90
2019-02-15T12:53:49.487Z,11.77
2019-02-15T12:56:16.027Z,12.57
2019-02-15T12:58:42.552Z,11.20
2019-02-15T13:01:09.189Z,11.47
2019-02-15T13:03:35.931Z,11.13
2019-02-15T13:06:02.467Z,14.60
2019-02-15T13:08:28.997Z,10.23
2019-02-15T13:10:55.848Z,11.03
2019-02-15T13:13:22.681Z,13.80
2019-02-15T13:15:49.214Z,11.07
2019-02-15T13:18:15.754Z,12.07
2019-02-15T13:20:42.592Z,10.30
2019-02-15T13:23:09.437Z,12.53
2019-02-15T13:25:37.032Z,10.28
2019-02-15T13:28:04.052Z,13.62
2019-02-15T13:30:30.579Z,9.80
2019-02-15T13:32:57.107Z,11.43
2019-02-15T13:35:23.645Z,10.05
2019-02-15T13:37:50.278Z,12.27
2019-02-15T13:40:16.995Z,9.58
2019-02-15T13:42:43.558Z,9.90
2019-02-15T13:45:10.090Z,12.17
2019-02-15T13:47:36.622Z,9.73
2019-02-15T13:50:03.463Z,11.60
2019-02-15T13:52:30.003Z,9.28
2019-02-15T13:54:56.532Z,12.17
2019-02-15T13:57:23.098Z,7.87
2019-02-15T13:59:49.909Z,11.63
2019-02-15T14:02:16.749Z,8.57
2019-02-15T14:04:43.286Z,8.87
2019-02-15T14:07:09.817Z,9.53
2019-02-15T14:09:36.662Z,15.03
2019-02-15T14:12:03.503Z,10.47
2019-02-15T14:14:30.038Z,7.93
2019-02-15T14:16:56.570Z,8.77
2019-02-15T14:19:23.111Z,9.00
2019-02-15T14:21:49.641Z,8.87
2019-02-15T14:24:16.482Z,8.57
2019-02-15T14:26:43.328Z,8.67
2019-02-15T14:29:10.164Z,10.50
2019-02-15T14:31:36.706Z,9.03
2019-02-15T14:34:03.560Z,9.30
2019-02-15T14:36:30.078Z,9.33
2019-02-15T14:38:56.610Z,8.47
2019-02-15T14:41:23.144Z,11.73
2019-02-15T14:43:49.989Z,16.03
2019-02-15T14:46:16.519Z,19.20
2019-02-15T14:48:43.054Z,12.60
2019-02-15T14:51:09.674Z,11.27
2019-02-15T14:53:36.436Z,16.10
2019-02-15T14:56:02.965Z,16.87
2019-02-15T14:58:29.499Z,16.57
2019-02-15T15:00:56.039Z,16.30
2019-02-15T15:03:22.878Z,15.97
2019-02-15T15:05:49.415Z,16.33
2019-02-15T15:08:17.487Z,12.20
2019-02-15T15:10:44.015Z,13.93
2019-02-15T15:13:10.549Z,23.20
2019-02-15T15:15:37.091Z,40.27
2019-02-15T15:18:12.820Z,35.00
2019-02-15T15:20:32.000Z,36.93
2019-02-15T15:22:58.530Z,38.23
2019-02-15T15:25:25.064Z,32.70
2019-02-15T15:27:51.911Z,29.07
2019-02-15T15:30:18.445Z,29.07
2019-02-15T15:32:45.287Z,29.80
2019-02-15T15:35:11.824Z,26.13
2019-02-15T15:37:38.659Z,23.30
2019-02-15T15:40:05.301Z,23.97
2019-02-15T15:42:32.041Z,19.73
2019-02-15T15:44:58.583Z,17.93
2019-02-15T15:47:25.411Z,19.43
2019-02-15T15:49:52.252Z,21.07
2019-02-15T15:52:18.790Z,19.80
2019-02-15T15:54:45.932Z,22.17
2019-02-15T15:57:12.472Z,23.07
2019-02-15T15:59:39.006Z,22.03
2019-02-15T16:02:05.846Z,22.27
2019-02-15T16:04:32.388Z,21.30
2019-02-15T16:06:58.918Z,23.27
2019-02-15T16:09:27.238Z,21.07
2019-02-15T16:11:54.142Z,23.50
2019-02-15T16:14:20.674Z,23.53
2019-02-15T16:16:47.513Z,23.70
2019-02-15T16:19:14.049Z,21.30
2019-02-15T16:21:40.889Z,20.20
2019-02-15T16:24:12.791Z,21.33
2019-02-15T16:26:35.803Z,24.93
2019-02-15T16:29:02.339Z,25.67
2019-02-15T16:31:29.182Z,18.47
2019-02-15T16:33:56.018Z,21.03
2019-02-15T16:36:22.555Z,23.07
2019-02-15T16:38:49.097Z,23.57
2019-02-15T16:41:15.640Z,21.63
2019-02-15T16:43:42.465Z,25.33
2019-02-15T16:46:09.305Z,21.00
2019-02-15T16:48:41.925Z,22.43
2019-02-15T16:51:04.216Z,23.57
2019-02-15T16:53:31.080Z,23.87
2019-02-15T16:55:57.601Z,23.13
2019-02-15T16:58:24.126Z,25.37
2019-02-15T17:00:51.075Z,23.87
2019-02-15T17:03:17.812Z,23.43
2019-02-15T17:05:44.344Z,28.87
2019-02-15T17:08:11.191Z,20.83
2019-02-15T17:10:37.720Z,29.37
2019-02-15T17:13:04.565Z,23.83
2019-02-15T17:15:31.404Z,25.77
2019-02-15T17:17:57.937Z,28.90
2019-02-15T17:20:24.563Z,60.30
2019-02-15T17:22:51.314Z,37.07
2019-02-15T17:25:17.853Z,37.53
2019-02-15T17:27:44.383Z,34.90
2019-02-15T17:30:11.228Z,31.63
2019-02-15T17:32:38.066Z,28.57
2019-02-15T17:35:04.933Z,30.67
2019-02-15T17:37:31.750Z,23.93
2019-02-15T17:39:58.283Z,23.27
2019-02-15T17:42:25.126Z,21.93
2019-02-15T17:44:51.689Z,28.77
2019-02-15T17:47:18.412Z,23.33
2019-02-15T17:49:45.040Z,29.43
2019-02-15T17:52:11.881Z,26.47
2019-02-15T17:54:39.235Z,26.27
2019-02-15T17:57:05.877Z,24.90
2019-02-15T17:59:32.710Z,24.43
2019-02-15T18:01:59.252Z,32.60
2019-02-15T18:04:25.779Z,24.40
2019-02-15T18:06:52.626Z,25.90
2019-02-15T18:09:19.155Z,25.73
2019-02-15T18:11:46.006Z,20.80
2019-02-15T18:14:12.839Z,24.90
2019-02-15T18:16:39.383Z,24.03
2019-02-15T18:19:10.078Z,21.07
2019-02-15T18:21:34.594Z,21.77
2019-02-15T18:24:01.434Z,21.87
2019-02-15T18:26:27.974Z,24.43
2019-02-15T18:28:54.609Z,23.37
2019-02-15T18:31:21.360Z,21.87
2019-02-15T18:33:47.891Z,18.53
2019-02-15T18:36:14.721Z,22.70
2019-02-15T18:38:41.258Z,23.17
2019-02-15T18:41:13.510Z,24.60
2019-02-15T18:43:36.169Z,25.60
2019-02-15T18:46:02.711Z,23.87
2019-02-15T18:48:29.542Z,23.17
2019-02-15T18:50:56.692Z,21.27
2019-02-15T18:53:23.534Z,20.43
2019-02-15T18:55:50.070Z,20.40
2019-02-15T18:58:17.220Z,21.40
2019-02-15T19:00:44.058Z,20.70
2019-02-15T19:03:10.596Z,20.50
2019-02-15T19:05:37.434Z,19.97
2019-02-15T19:08:04.276Z,23.90
2019-02-15T19:10:30.803Z,22.10
2019-02-15T19:12:57.658Z,21.27
2019-02-15T19:15:24.216Z,20.60
2019-02-15T19:17:51.015Z,22.27
2019-02-15T19:20:17.877Z,20.03
2019-02-15T19:22:44.406Z,22.17
2019-02-15T19:25:10.944Z,21.30
2019-02-15T19:27:37.801Z,22.47
2019-02-15T19:30:04.268Z,20.50
2019-02-15T19:32:31.220Z,21.80
2019-02-15T19:34:57.878Z,23.73
2019-02-15T19:37:24.533Z,21.53
2019-02-15T19:39:51.067Z,23.30
2019-02-15T19:42:17.604Z,20.43
2019-02-15T19:44:44.135Z,20.40
2019-02-15T19:47:11.381Z,23.37
2019-02-15T19:49:39.057Z,22.67
2019-02-15T19:52:05.894Z,22.83
2019-02-15T19:54:32.737Z,23.53
2019-02-15T19:56:59.574Z,23.40
2019-02-15T19:59:26.108Z,23.23
2019-02-15T20:01:52.653Z,22.97
2019-02-15T20:04:19.483Z,23.77
2019-02-15T20:06:46.021Z,21.03
2019-02-15T20:09:12.870Z,25.13
2019-02-15T20:11:39.481Z,24.33
2019-02-15T20:14:06.235Z,24.17
2019-02-15T20:16:32.769Z,27.00
2019-02-15T20:18:59.616Z,24.43
2019-02-15T20:21:26.146Z,32.80
2019-02-15T20:23:52.782Z,25.63
2019-02-15T20:26:19.522Z,24.53
2019-02-15T20:28:46.060Z,25.63
2019-02-15T20:31:12.904Z,25.73
2019-02-15T20:33:39.434Z,22.43
2019-02-15T20:36:06.277Z,24.93
2019-02-15T20:38:33.115Z,24.53
2019-02-15T20:40:59.958Z,26.13
2019-02-15T20:43:26.809Z,27.47
2019-02-15T20:45:53.334Z,25.13
2019-02-15T20:48:20.174Z,26.73
2019-02-15T20:50:47.020Z,29.70
2019-02-15T20:53:13.554Z,29.97
2019-02-15T20:55:40.392Z,32.33
2019-02-15T20:58:06.867Z,30.60
2019-02-15T21:00:33.466Z,29.73
2019-02-15T21:03:00.310Z,28.57
2019-02-15T21:05:26.844Z,33.67
2019-02-15T21:07:53.682Z,30.93
2019-02-15T21:10:21.641Z,34.77
2019-02-15T21:12:48.293Z,31.67
2019-02-15T21:15:14.820Z,33.83
2019-02-15T21:17:41.354Z,33.20
2019-02-15T21:20:08.603Z,35.77
2019-02-15T21:22:35.348Z,32.07
2019-02-15T21:25:01.886Z,35.57
2019-02-15T21:27:28.416Z,36.27
2019-02-15T21:29:54.950Z,36.27
2019-02-15T21:32:21.788Z,36.93
2019-02-15T21:34:48.631Z,39.03
2019-02-15T21:37:15.480Z,40.80
2019-02-15T21:39:42.318Z,46.30
2019-02-15T21:42:09.159Z,43.10
2019-02-15T21:44:36.101Z,45.77
2019-02-15T21:47:02.838Z,49.87
2019-02-15T21:49:29.377Z,49.87
2019-02-15T21:51:55.910Z,47.03
2019-02-15T21:54:22.450Z,45.73
2019-02-15T21:56:49.290Z,54.60
2019-02-15T21:59:15.820Z,50.93
2019-02-15T22:01:42.352Z,49.63
2019-02-15T22:04:08.888Z,57.10
2019-02-15T22:06:35.428Z,56.13
2019-02-15T22:09:02.268Z,51.27
2019-02-15T22:11:29.107Z,54.27
2019-02-15T22:13:55.655Z,51.93
2019-02-15T22:16:22.493Z,50.17
2019-02-15T22:18:49.324Z,61.43
2019-02-15T22:21:16.164Z,54.53
2019-02-15T22:23:42.702Z,47.87
2019-02-15T22:26:09.240Z,45.57
2019-02-15T22:28:35.771Z,42.43
2019-02-15T22:31:02.302Z,43.70
2019-02-15T22:33:29.151Z,45.00
2019-02-15T22:35:55.688Z,40.67
2019-02-15T22:38:22.212Z,37.50
2019-02-15T22:40:48.746Z,40.27
2019-02-15T22:43:15.657Z,39.17
2019-02-15T22:45:43.115Z,34.50
2019-02-15T22:48:09.893Z,41.27
2019-02-15T22:50:36.599Z,43.47
2019-02-15T22:53:03.570Z,41.47
2019-02-15T22:55:30.110Z,38.27
2019-02-15T22:57:57.254Z,37.20
2019-02-15T23:00:23.789Z,39.60
2019-02-15T23:02:50.325Z,41.47
2019-02-15T23:05:17.163Z,43.90
2019-02-15T23:07:43.698Z,40.83
2019-02-15T23:10:10.531Z,39.23
2019-02-15T23:12:37.078Z,42.93
2019-02-15T23:15:03.917Z,41.37
2019-02-15T23:17:30.758Z,41.83
2019-02-15T23:19:57.994Z,40.33
2019-02-15T23:22:24.752Z,47.20
2019-02-15T23:24:51.391Z,41.10
2019-02-15T23:27:18.127Z,41.47
2019-02-15T23:29:44.676Z,38.77
2019-02-15T23:32:11.192Z,43.23
2019-02-15T23:34:38.034Z,41.97
2019-02-15T23:37:04.572Z,47.57
2019-02-15T23:39:31.415Z,47.87
2019-02-15T23:41:57.948Z,40.83
2019-02-15T23:44:24.788Z,45.67
2019-02-15T23:46:51.629Z,43.63
2019-02-15T23:49:18.169Z,42.17
2019-02-15T23:51:44.698Z,37.47
2019-02-15T23:54:11.233Z,34.63
2019-02-15T23:56:37.770Z,39.40
2019-02-15T23:59:04.300Z,34.13
